sensor_id;sensor_type;location;lat;lon;timestamp;temperature;humidity
13642;DHT22;6894;52.196;9.904;2023-08-12T00:00:10;21.20;99.90
13642;DHT22;6894;52.196;9.904;2023-08-12T00:02:37;21.20;99.90
13642;DHT22;6894;52.196;9.904;2023-08-12T00:05:05;21.20;99.90
13642;DHT22;6894;52.196;9.904;2023-08-12T00:07:32;21.10;99.90
13642;DHT22;6894;52.196;9.904;2023-08-12T00:10:01;21.20;99.90
13642;DHT22;6894;52.196;9.904;2023-08-12T00:12:29;21.10;99.90
13642;DHT22;6894;52.196;9.904;2023-08-12T00:14:56;21.00;99.90
13642;DHT22;6894;52.196;9.904;2023-08-12T00:17:23;21.00;99.90
13642;DHT22;6894;52.196;9.904;2023-08-12T00:19:50;20.90;99.90
13642;DHT22;6894;52.196;9.904;2023-08-12T00:22:16;20.90;99.90
13642;DHT22;6894;52.196;9.904;2023-08-12T00:24:43;20.70;99.90
13642;DHT22;6894;52.196;9.904;2023-08-12T00:27:12;20.70;99.90
13642;DHT22;6894;52.196;9.904;2023-08-12T00:29:39;20.70;99.90
13642;DHT22;6894;52.196;9.904;2023-08-12T00:32:05;20.50;99.90
13642;DHT22;6894;52.196;9.904;2023-08-12T00:34:32;20.50;99.90
13642;DHT22;6894;52.196;9.904;2023-08-12T00:36:59;20.50;99.90
13642;DHT22;6894;52.196;9.904;2023-08-12T00:39:26;20.50;99.90
13642;DHT22;6894;52.196;9.904;2023-08-12T00:41:52;20.60;99.90
13642;DHT22;6894;52.196;9.904;2023-08-12T00:44:21;20.60;99.90
13642;DHT22;6894;52.196;9.904;2023-08-12T00:46:48;20.70;99.90
13642;DHT22;6894;52.196;9.904;2023-08-12T00:49:15;20.80;99.90
13642;DHT22;6894;52.196;9.904;2023-08-12T00:51:43;20.90;99.90
13642;DHT22;6894;52.196;9.904;2023-08-12T00:54:14;20.90;99.90
13642;DHT22;6894;52.196;9.904;2023-08-12T00:56:41;21.00;99.90
13642;DHT22;6894;52.196;9.904;2023-08-12T00:59:09;21.00;99.90
13642;DHT22;6894;52.196;9.904;2023-08-12T01:01:39;21.00;99.90
13642;DHT22;6894;52.196;9.904;2023-08-12T01:04:06;21.00;99.90
13642;DHT22;6894;52.196;9.904;2023-08-12T01:06:33;21.00;99.90
13642;DHT22;6894;52.196;9.904;2023-08-12T01:09:00;21.00;99.90
13642;DHT22;6894;52.196;9.904;2023-08-12T01:11:29;21.00;99.90
13642;DHT22;6894;52.196;9.904;2023-08-12T01:14:00;20.90;99.90
13642;DHT22;6894;52.196;9.904;2023-08-12T01:16:33;20.90;99.90
13642;DHT22;6894;52.196;9.904;2023-08-12T01:19:05;20.90;99.90
13642;DHT22;6894;52.196;9.904;2023-08-12T01:21:33;20.90;99.90
13642;DHT22;6894;52.196;9.904;2023-08-12T01:24:03;20.90;99.90
13642;DHT22;6894;52.196;9.904;2023-08-12T01:26:30;21.00;99.90
13642;DHT22;6894;52.196;9.904;2023-08-12T01:28:57;21.00;99.90
13642;DHT22;6894;52.196;9.904;2023-08-12T01:31:27;21.00;99.90
13642;DHT22;6894;52.196;9.904;2023-08-12T01:34:01;21.00;99.90
13642;DHT22;6894;52.196;9.904;2023-08-12T01:36:30;20.90;99.90
13642;DHT22;6894;52.196;9.904;2023-08-12T01:38:59;20.90;99.90
13642;DHT22;6894;52.196;9.904;2023-08-12T01:41:28;20.90;99.90
13642;DHT22;6894;52.196;9.904;2023-08-12T01:43:55;20.90;99.90
13642;DHT22;6894;52.196;9.904;2023-08-12T01:46:22;20.90;99.90
13642;DHT22;6894;52.196;9.904;2023-08-12T01:48:48;20.80;99.90
13642;DHT22;6894;52.196;9.904;2023-08-12T01:51:15;20.90;99.90
13642;DHT22;6894;52.196;9.904;2023-08-12T01:53:42;20.90;99.90
13642;DHT22;6894;52.196;9.904;2023-08-12T01:56:09;20.90;99.90
13642;DHT22;6894;52.196;9.904;2023-08-12T01:58:37;20.80;99.90
13642;DHT22;6894;52.196;9.904;2023-08-12T02:01:03;20.90;99.90
13642;DHT22;6894;52.196;9.904;2023-08-12T02:03:30;20.80;99.90
13642;DHT22;6894;52.196;9.904;2023-08-12T02:05:57;20.80;99.90
13642;DHT22;6894;52.196;9.904;2023-08-12T02:08:24;20.90;99.90
13642;DHT22;6894;52.196;9.904;2023-08-12T02:10:50;20.90;99.90
13642;DHT22;6894;52.196;9.904;2023-08-12T02:13:17;21.00;99.90
13642;DHT22;6894;52.196;9.904;2023-08-12T02:15:45;21.00;99.90
13642;DHT22;6894;52.196;9.904;2023-08-12T02:18:12;21.00;99.90
13642;DHT22;6894;52.196;9.904;2023-08-12T02:20:40;21.00;99.90
13642;DHT22;6894;52.196;9.904;2023-08-12T02:23:07;20.90;99.90
13642;DHT22;6894;52.196;9.904;2023-08-12T02:25:33;21.00;99.90
13642;DHT22;6894;52.196;9.904;2023-08-12T02:28:01;21.00;99.90
13642;DHT22;6894;52.196;9.904;2023-08-12T02:30:29;21.00;99.90
13642;DHT22;6894;52.196;9.904;2023-08-12T02:32:57;21.00;99.90
13642;DHT22;6894;52.196;9.904;2023-08-12T02:35:24;21.00;99.90
13642;DHT22;6894;52.196;9.904;2023-08-12T02:37:50;21.00;99.90
13642;DHT22;6894;52.196;9.904;2023-08-12T02:40:17;21.00;99.90
13642;DHT22;6894;52.196;9.904;2023-08-12T02:42:44;21.00;99.90
13642;DHT22;6894;52.196;9.904;2023-08-12T02:45:11;21.00;99.90
13642;DHT22;6894;52.196;9.904;2023-08-12T02:47:37;21.10;99.90
13642;DHT22;6894;52.196;9.904;2023-08-12T02:50:07;21.10;99.90
13642;DHT22;6894;52.196;9.904;2023-08-12T02:52:34;21.10;99.90
13642;DHT22;6894;52.196;9.904;2023-08-12T02:55:00;21.00;99.90
13642;DHT22;6894;52.196;9.904;2023-08-12T02:57:27;21.00;99.90
13642;DHT22;6894;52.196;9.904;2023-08-12T02:59:54;21.00;99.90
13642;DHT22;6894;52.196;9.904;2023-08-12T03:02:21;20.90;99.90
13642;DHT22;6894;52.196;9.904;2023-08-12T03:04:47;20.70;99.90
13642;DHT22;6894;52.196;9.904;2023-08-12T03:07:15;20.50;99.90
13642;DHT22;6894;52.196;9.904;2023-08-12T03:09:42;20.30;99.90
13642;DHT22;6894;52.196;9.904;2023-08-12T03:12:09;20.20;99.90
13642;DHT22;6894;52.196;9.904;2023-08-12T03:14:35;20.20;99.90
13642;DHT22;6894;52.196;9.904;2023-08-12T03:17:02;20.20;99.90
13642;DHT22;6894;52.196;9.904;2023-08-12T03:19:29;20.20;99.90
13642;DHT22;6894;52.196;9.904;2023-08-12T03:21:56;20.30;99.90
13642;DHT22;6894;52.196;9.904;2023-08-12T03:24:24;20.40;99.90
13642;DHT22;6894;52.196;9.904;2023-08-12T03:26:51;20.40;99.90
13642;DHT22;6894;52.196;9.904;2023-08-12T03:29:17;20.40;99.90
13642;DHT22;6894;52.196;9.904;2023-08-12T03:31:44;20.40;99.90
13642;DHT22;6894;52.196;9.904;2023-08-12T03:34:11;20.40;99.90
13642;DHT22;6894;52.196;9.904;2023-08-12T03:36:38;20.40;99.90
13642;DHT22;6894;52.196;9.904;2023-08-12T03:39:05;20.50;99.90
13642;DHT22;6894;52.196;9.904;2023-08-12T03:41:33;20.60;99.90
13642;DHT22;6894;52.196;9.904;2023-08-12T03:43:59;20.60;99.90
13642;DHT22;6894;52.196;9.904;2023-08-12T03:46:26;20.70;99.90
13642;DHT22;6894;52.196;9.904;2023-08-12T03:48:53;20.80;99.90
13642;DHT22;6894;52.196;9.904;2023-08-12T03:51:20;20.70;99.90
13642;DHT22;6894;52.196;9.904;2023-08-12T03:53:47;20.60;99.90
13642;DHT22;6894;52.196;9.904;2023-08-12T03:56:14;20.50;99.90
13642;DHT22;6894;52.196;9.904;2023-08-12T03:58:43;20.50;99.90
13642;DHT22;6894;52.196;9.904;2023-08-12T04:01:10;20.30;99.90
13642;DHT22;6894;52.196;9.904;2023-08-12T04:03:37;20.20;99.90
13642;DHT22;6894;52.196;9.904;2023-08-12T04:06:03;20.20;99.90
13642;DHT22;6894;52.196;9.904;2023-08-12T04:08:30;20.20;99.90
13642;DHT22;6894;52.196;9.904;2023-08-12T04:10:59;20.20;99.90
13642;DHT22;6894;52.196;9.904;2023-08-12T04:13:25;20.20;99.90
13642;DHT22;6894;52.196;9.904;2023-08-12T04:15:54;20.30;99.90
13642;DHT22;6894;52.196;9.904;2023-08-12T04:18:21;20.20;99.90
13642;DHT22;6894;52.196;9.904;2023-08-12T04:20:48;20.30;99.90
13642;DHT22;6894;52.196;9.904;2023-08-12T04:23:15;20.40;99.90
13642;DHT22;6894;52.196;9.904;2023-08-12T04:25:43;20.40;99.90
13642;DHT22;6894;52.196;9.904;2023-08-12T04:28:10;20.50;99.90
13642;DHT22;6894;52.196;9.904;2023-08-12T04:30:40;20.40;99.90
13642;DHT22;6894;52.196;9.904;2023-08-12T04:33:08;20.40;99.90
13642;DHT22;6894;52.196;9.904;2023-08-12T04:35:35;20.40;99.90
13642;DHT22;6894;52.196;9.904;2023-08-12T04:38:02;20.40;99.90
13642;DHT22;6894;52.196;9.904;2023-08-12T04:40:29;20.40;99.90
13642;DHT22;6894;52.196;9.904;2023-08-12T04:42:56;20.40;99.90
13642;DHT22;6894;52.196;9.904;2023-08-12T04:45:23;20.50;99.90
13642;DHT22;6894;52.196;9.904;2023-08-12T04:47:49;20.50;99.90
13642;DHT22;6894;52.196;9.904;2023-08-12T04:50:17;20.50;99.90
13642;DHT22;6894;52.196;9.904;2023-08-12T04:52:44;20.50;99.90
13642;DHT22;6894;52.196;9.904;2023-08-12T04:55:12;20.50;99.90
13642;DHT22;6894;52.196;9.904;2023-08-12T04:57:39;20.40;99.90
13642;DHT22;6894;52.196;9.904;2023-08-12T05:00:06;20.30;99.90
13642;DHT22;6894;52.196;9.904;2023-08-12T05:02:33;20.30;99.90
13642;DHT22;6894;52.196;9.904;2023-08-12T05:05:00;20.20;99.90
13642;DHT22;6894;52.196;9.904;2023-08-12T05:07:28;20.20;99.90
13642;DHT22;6894;52.196;9.904;2023-08-12T05:09:56;20.10;99.90
13642;DHT22;6894;52.196;9.904;2023-08-12T05:12:23;20.10;99.90
13642;DHT22;6894;52.196;9.904;2023-08-12T05:14:50;20.10;99.90
13642;DHT22;6894;52.196;9.904;2023-08-12T05:17:17;20.00;99.90
13642;DHT22;6894;52.196;9.904;2023-08-12T05:19:44;20.00;99.90
13642;DHT22;6894;52.196;9.904;2023-08-12T05:22:11;20.00;99.90
13642;DHT22;6894;52.196;9.904;2023-08-12T05:24:39;20.00;99.90
13642;DHT22;6894;52.196;9.904;2023-08-12T05:27:06;20.00;99.90
13642;DHT22;6894;52.196;9.904;2023-08-12T05:29:33;20.00;99.90
13642;DHT22;6894;52.196;9.904;2023-08-12T05:32:00;20.10;99.90
13642;DHT22;6894;52.196;9.904;2023-08-12T05:34:26;20.00;99.90
13642;DHT22;6894;52.196;9.904;2023-08-12T05:36:53;20.00;99.90
13642;DHT22;6894;52.196;9.904;2023-08-12T05:39:20;20.10;99.90
13642;DHT22;6894;52.196;9.904;2023-08-12T05:41:48;20.10;99.90
13642;DHT22;6894;52.196;9.904;2023-08-12T05:44:15;20.10;99.90
13642;DHT22;6894;52.196;9.904;2023-08-12T05:46:41;20.10;99.90
13642;DHT22;6894;52.196;9.904;2023-08-12T05:49:08;20.20;99.90
13642;DHT22;6894;52.196;9.904;2023-08-12T05:51:35;20.20;99.90
13642;DHT22;6894;52.196;9.904;2023-08-12T05:54:04;20.30;99.90
13642;DHT22;6894;52.196;9.904;2023-08-12T05:56:30;20.30;99.90
13642;DHT22;6894;52.196;9.904;2023-08-12T05:59:02;20.40;99.90
13642;DHT22;6894;52.196;9.904;2023-08-12T06:01:29;20.30;99.90
13642;DHT22;6894;52.196;9.904;2023-08-12T06:03:55;20.40;99.90
13642;DHT22;6894;52.196;9.904;2023-08-12T06:06:22;20.50;99.90
13642;DHT22;6894;52.196;9.904;2023-08-12T06:08:52;20.50;99.90
13642;DHT22;6894;52.196;9.904;2023-08-12T06:11:19;20.50;99.90
13642;DHT22;6894;52.196;9.904;2023-08-12T06:13:45;20.50;99.90
13642;DHT22;6894;52.196;9.904;2023-08-12T06:16:13;20.50;99.90
13642;DHT22;6894;52.196;9.904;2023-08-12T06:18:40;20.50;99.90
13642;DHT22;6894;52.196;9.904;2023-08-12T06:21:07;20.50;99.90
13642;DHT22;6894;52.196;9.904;2023-08-12T06:23:34;20.60;99.90
13642;DHT22;6894;52.196;9.904;2023-08-12T06:26:01;20.50;99.90
13642;DHT22;6894;52.196;9.904;2023-08-12T06:28:28;20.50;99.90
13642;DHT22;6894;52.196;9.904;2023-08-12T06:30:54;20.50;99.90
13642;DHT22;6894;52.196;9.904;2023-08-12T06:33:22;20.60;99.90
13642;DHT22;6894;52.196;9.904;2023-08-12T06:35:50;20.50;99.90
13642;DHT22;6894;52.196;9.904;2023-08-12T06:38:16;20.60;99.90
13642;DHT22;6894;52.196;9.904;2023-08-12T06:40:43;20.60;99.90
13642;DHT22;6894;52.196;9.904;2023-08-12T06:43:10;20.60;99.90
13642;DHT22;6894;52.196;9.904;2023-08-12T06:45:37;20.70;99.90
13642;DHT22;6894;52.196;9.904;2023-08-12T06:48:04;20.60;99.90
13642;DHT22;6894;52.196;9.904;2023-08-12T06:50:32;20.60;99.90
13642;DHT22;6894;52.196;9.904;2023-08-12T06:52:59;20.50;99.90
13642;DHT22;6894;52.196;9.904;2023-08-12T06:55:26;20.50;99.90
13642;DHT22;6894;52.196;9.904;2023-08-12T06:57:53;20.50;99.90
13642;DHT22;6894;52.196;9.904;2023-08-12T07:00:20;20.60;99.90
13642;DHT22;6894;52.196;9.904;2023-08-12T07:02:47;20.70;99.90
13642;DHT22;6894;52.196;9.904;2023-08-12T07:05:13;20.80;99.90
13642;DHT22;6894;52.196;9.904;2023-08-12T07:07:42;20.80;99.90
13642;DHT22;6894;52.196;9.904;2023-08-12T07:10:09;20.90;99.90
13642;DHT22;6894;52.196;9.904;2023-08-12T07:12:36;21.00;99.90
13642;DHT22;6894;52.196;9.904;2023-08-12T07:15:03;21.20;99.90
13642;DHT22;6894;52.196;9.904;2023-08-12T07:17:29;21.30;99.90
13642;DHT22;6894;52.196;9.904;2023-08-12T07:19:56;21.30;99.90
13642;DHT22;6894;52.196;9.904;2023-08-12T07:22:23;21.50;99.90
13642;DHT22;6894;52.196;9.904;2023-08-12T07:24:51;21.60;99.90
13642;DHT22;6894;52.196;9.904;2023-08-12T07:27:18;21.70;99.90
13642;DHT22;6894;52.196;9.904;2023-08-12T07:29:45;21.70;99.90
13642;DHT22;6894;52.196;9.904;2023-08-12T07:32:12;21.80;99.90
13642;DHT22;6894;52.196;9.904;2023-08-12T07:34:39;21.70;99.90
13642;DHT22;6894;52.196;9.904;2023-08-12T07:37:06;21.70;99.90
13642;DHT22;6894;52.196;9.904;2023-08-12T07:39:32;21.60;99.90
13642;DHT22;6894;52.196;9.904;2023-08-12T07:42:01;21.60;99.90
13642;DHT22;6894;52.196;9.904;2023-08-12T07:44:27;21.50;99.90
13642;DHT22;6894;52.196;9.904;2023-08-12T07:46:54;21.50;99.90
13642;DHT22;6894;52.196;9.904;2023-08-12T07:49:21;21.50;99.90
13642;DHT22;6894;52.196;9.904;2023-08-12T07:51:48;21.50;99.90
13642;DHT22;6894;52.196;9.904;2023-08-12T07:54:15;21.50;99.90
13642;DHT22;6894;52.196;9.904;2023-08-12T07:56:42;21.60;99.90
13642;DHT22;6894;52.196;9.904;2023-08-12T07:59:10;21.50;99.90
13642;DHT22;6894;52.196;9.904;2023-08-12T08:01:37;21.50;99.90
13642;DHT22;6894;52.196;9.904;2023-08-12T08:04:04;21.50;99.90
13642;DHT22;6894;52.196;9.904;2023-08-12T08:06:31;21.50;99.90
13642;DHT22;6894;52.196;9.904;2023-08-12T08:08:58;21.50;99.90
13642;DHT22;6894;52.196;9.904;2023-08-12T08:11:28;21.50;99.90
13642;DHT22;6894;52.196;9.904;2023-08-12T08:13:55;21.40;99.90
13642;DHT22;6894;52.196;9.904;2023-08-12T08:16:23;21.40;99.90
13642;DHT22;6894;52.196;9.904;2023-08-12T08:18:50;21.40;99.90
13642;DHT22;6894;52.196;9.904;2023-08-12T08:21:17;21.40;99.90
13642;DHT22;6894;52.196;9.904;2023-08-12T08:23:44;21.30;99.90
13642;DHT22;6894;52.196;9.904;2023-08-12T08:26:11;21.30;99.90
13642;DHT22;6894;52.196;9.904;2023-08-12T08:28:38;21.30;99.90
13642;DHT22;6894;52.196;9.904;2023-08-12T08:31:05;21.30;99.90
13642;DHT22;6894;52.196;9.904;2023-08-12T08:33:33;21.30;99.90
13642;DHT22;6894;52.196;9.904;2023-08-12T08:36:00;21.30;99.90
13642;DHT22;6894;52.196;9.904;2023-08-12T08:38:27;21.30;99.90
13642;DHT22;6894;52.196;9.904;2023-08-12T08:40:53;21.30;99.90
13642;DHT22;6894;52.196;9.904;2023-08-12T08:43:21;21.30;99.90
13642;DHT22;6894;52.196;9.904;2023-08-12T08:45:49;21.30;99.90
13642;DHT22;6894;52.196;9.904;2023-08-12T08:48:16;21.30;99.90
13642;DHT22;6894;52.196;9.904;2023-08-12T08:50:45;21.20;99.90
13642;DHT22;6894;52.196;9.904;2023-08-12T08:53:13;21.30;99.90
13642;DHT22;6894;52.196;9.904;2023-08-12T08:55:41;21.20;99.90
13642;DHT22;6894;52.196;9.904;2023-08-12T08:58:08;21.20;99.90
13642;DHT22;6894;52.196;9.904;2023-08-12T09:00:35;21.30;99.90
13642;DHT22;6894;52.196;9.904;2023-08-12T09:03:03;21.20;99.90
13642;DHT22;6894;52.196;9.904;2023-08-12T09:05:32;21.30;99.90
13642;DHT22;6894;52.196;9.904;2023-08-12T09:08:02;21.20;99.90
13642;DHT22;6894;52.196;9.904;2023-08-12T09:10:33;21.20;99.90
13642;DHT22;6894;52.196;9.904;2023-08-12T09:13:01;21.20;99.90
13642;DHT22;6894;52.196;9.904;2023-08-12T09:15:28;21.30;99.90
13642;DHT22;6894;52.196;9.904;2023-08-12T09:17:55;21.40;99.90
13642;DHT22;6894;52.196;9.904;2023-08-12T09:20:22;21.60;99.90
13642;DHT22;6894;52.196;9.904;2023-08-12T09:22:55;21.70;99.90
13642;DHT22;6894;52.196;9.904;2023-08-12T09:25:25;22.10;99.90
13642;DHT22;6894;52.196;9.904;2023-08-12T09:27:53;22.50;99.90
13642;DHT22;6894;52.196;9.904;2023-08-12T09:30:20;22.70;99.90
13642;DHT22;6894;52.196;9.904;2023-08-12T09:32:58;23.00;99.90
13642;DHT22;6894;52.196;9.904;2023-08-12T09:35:32;23.40;99.90
13642;DHT22;6894;52.196;9.904;2023-08-12T09:37:58;23.70;99.90
13642;DHT22;6894;52.196;9.904;2023-08-12T09:40:27;23.80;99.90
13642;DHT22;6894;52.196;9.904;2023-08-12T09:42:55;24.30;99.90
13642;DHT22;6894;52.196;9.904;2023-08-12T09:45:23;24.70;99.90
13642;DHT22;6894;52.196;9.904;2023-08-12T09:47:50;24.90;99.90
13642;DHT22;6894;52.196;9.904;2023-08-12T09:50:17;25.00;99.90
13642;DHT22;6894;52.196;9.904;2023-08-12T09:52:44;25.40;99.90
13642;DHT22;6894;52.196;9.904;2023-08-12T09:55:16;25.50;99.90
13642;DHT22;6894;52.196;9.904;2023-08-12T09:57:48;25.20;99.90
13642;DHT22;6894;52.196;9.904;2023-08-12T10:00:15;25.10;99.90
13642;DHT22;6894;52.196;9.904;2023-08-12T10:02:44;25.00;99.90
13642;DHT22;6894;52.196;9.904;2023-08-12T10:05:15;24.90;99.90
13642;DHT22;6894;52.196;9.904;2023-08-12T10:07:43;24.80;99.90
13642;DHT22;6894;52.196;9.904;2023-08-12T10:10:11;24.60;99.90
13642;DHT22;6894;52.196;9.904;2023-08-12T10:12:38;24.50;99.90
13642;DHT22;6894;52.196;9.904;2023-08-12T10:15:08;24.40;99.90
13642;DHT22;6894;52.196;9.904;2023-08-12T10:17:36;24.30;99.90
13642;DHT22;6894;52.196;9.904;2023-08-12T10:20:04;24.20;99.90
13642;DHT22;6894;52.196;9.904;2023-08-12T10:22:33;24.20;99.90
13642;DHT22;6894;52.196;9.904;2023-08-12T10:25:02;24.00;99.90
13642;DHT22;6894;52.196;9.904;2023-08-12T10:27:29;23.90;99.90
13642;DHT22;6894;52.196;9.904;2023-08-12T10:29:56;23.80;99.90
13642;DHT22;6894;52.196;9.904;2023-08-12T10:32:25;23.80;99.90
13642;DHT22;6894;52.196;9.904;2023-08-12T10:34:55;23.80;99.90
13642;DHT22;6894;52.196;9.904;2023-08-12T10:37:23;23.80;99.90
13642;DHT22;6894;52.196;9.904;2023-08-12T10:39:52;23.80;99.90
13642;DHT22;6894;52.196;9.904;2023-08-12T10:42:39;23.80;99.90
13642;DHT22;6894;52.196;9.904;2023-08-12T10:45:07;23.80;99.90
13642;DHT22;6894;52.196;9.904;2023-08-12T10:47:40;23.90;99.90
13642;DHT22;6894;52.196;9.904;2023-08-12T10:50:16;24.10;99.90
13642;DHT22;6894;52.196;9.904;2023-08-12T10:52:44;24.30;99.90
13642;DHT22;6894;52.196;9.904;2023-08-12T10:55:21;24.50;99.90
13642;DHT22;6894;52.196;9.904;2023-08-12T10:57:49;24.60;99.90
13642;DHT22;6894;52.196;9.904;2023-08-12T11:00:16;25.00;99.90
13642;DHT22;6894;52.196;9.904;2023-08-12T11:02:50;25.10;99.90
13642;DHT22;6894;52.196;9.904;2023-08-12T11:05:18;25.40;99.90
13642;DHT22;6894;52.196;9.904;2023-08-12T11:07:46;25.70;99.90
13642;DHT22;6894;52.196;9.904;2023-08-12T11:10:16;26.00;99.90
13642;DHT22;6894;52.196;9.904;2023-08-12T11:12:48;26.40;99.90
13642;DHT22;6894;52.196;9.904;2023-08-12T11:15:29;26.50;99.90
13642;DHT22;6894;52.196;9.904;2023-08-12T11:17:58;26.60;99.90
13642;DHT22;6894;52.196;9.904;2023-08-12T11:20:25;26.80;99.90
13642;DHT22;6894;52.196;9.904;2023-08-12T11:22:54;26.70;99.90
13642;DHT22;6894;52.196;9.904;2023-08-12T11:25:21;26.50;99.90
13642;DHT22;6894;52.196;9.904;2023-08-12T11:27:48;26.40;99.90
13642;DHT22;6894;52.196;9.904;2023-08-12T11:30:18;26.10;99.90
13642;DHT22;6894;52.196;9.904;2023-08-12T11:32:47;26.50;99.90
13642;DHT22;6894;52.196;9.904;2023-08-12T11:35:16;27.00;99.90
13642;DHT22;6894;52.196;9.904;2023-08-12T11:37:45;27.60;99.90
13642;DHT22;6894;52.196;9.904;2023-08-12T11:40:13;27.80;99.90
13642;DHT22;6894;52.196;9.904;2023-08-12T11:42:42;28.00;99.90
13642;DHT22;6894;52.196;9.904;2023-08-12T11:45:10;28.10;99.90
13642;DHT22;6894;52.196;9.904;2023-08-12T11:47:40;27.60;99.90
13642;DHT22;6894;52.196;9.904;2023-08-12T11:50:08;27.60;99.90
13642;DHT22;6894;52.196;9.904;2023-08-12T11:52:38;27.40;99.90
13642;DHT22;6894;52.196;9.904;2023-08-12T11:55:06;27.20;99.90
13642;DHT22;6894;52.196;9.904;2023-08-12T11:57:33;27.10;99.90
13642;DHT22;6894;52.196;9.904;2023-08-12T12:00:02;27.10;99.90
13642;DHT22;6894;52.196;9.904;2023-08-12T12:02:30;27.10;99.90
13642;DHT22;6894;52.196;9.904;2023-08-12T12:04:57;27.00;99.90
13642;DHT22;6894;52.196;9.904;2023-08-12T12:07:25;26.90;99.90
13642;DHT22;6894;52.196;9.904;2023-08-12T12:09:54;26.70;99.90
13642;DHT22;6894;52.196;9.904;2023-08-12T12:12:24;26.80;99.90
13642;DHT22;6894;52.196;9.904;2023-08-12T12:14:51;27.00;99.90
13642;DHT22;6894;52.196;9.904;2023-08-12T12:17:21;27.00;99.90
13642;DHT22;6894;52.196;9.904;2023-08-12T12:19:52;27.30;99.90
13642;DHT22;6894;52.196;9.904;2023-08-12T12:22:19;27.50;99.90
13642;DHT22;6894;52.196;9.904;2023-08-12T12:24:46;27.30;99.90
13642;DHT22;6894;52.196;9.904;2023-08-12T12:27:15;27.20;99.90
13642;DHT22;6894;52.196;9.904;2023-08-12T12:29:42;27.00;99.90
13642;DHT22;6894;52.196;9.904;2023-08-12T12:32:10;27.00;99.90
13642;DHT22;6894;52.196;9.904;2023-08-12T12:34:37;26.70;99.90
13642;DHT22;6894;52.196;9.904;2023-08-12T12:37:03;26.70;99.90
13642;DHT22;6894;52.196;9.904;2023-08-12T12:39:31;26.50;99.90
13642;DHT22;6894;52.196;9.904;2023-08-12T12:41:58;26.50;99.90
13642;DHT22;6894;52.196;9.904;2023-08-12T12:44:26;26.40;99.90
13642;DHT22;6894;52.196;9.904;2023-08-12T12:46:53;26.50;99.90
13642;DHT22;6894;52.196;9.904;2023-08-12T12:49:20;26.40;99.90
13642;DHT22;6894;52.196;9.904;2023-08-12T12:51:46;26.40;99.90
13642;DHT22;6894;52.196;9.904;2023-08-12T12:54:13;26.40;99.90
13642;DHT22;6894;52.196;9.904;2023-08-12T12:56:40;26.40;99.90
13642;DHT22;6894;52.196;9.904;2023-08-12T12:59:07;26.30;99.90
13642;DHT22;6894;52.196;9.904;2023-08-12T13:01:35;26.30;99.90
13642;DHT22;6894;52.196;9.904;2023-08-12T13:04:02;26.20;99.90
13642;DHT22;6894;52.196;9.904;2023-08-12T13:06:30;25.90;99.90
13642;DHT22;6894;52.196;9.904;2023-08-12T13:08:56;25.10;99.90
13642;DHT22;6894;52.196;9.904;2023-08-12T13:11:23;24.30;99.90
13642;DHT22;6894;52.196;9.904;2023-08-12T13:13:50;23.70;99.90
13642;DHT22;6894;52.196;9.904;2023-08-12T13:16:17;23.10;99.90
13642;DHT22;6894;52.196;9.904;2023-08-12T13:18:45;23.00;99.90
13642;DHT22;6894;52.196;9.904;2023-08-12T13:21:12;22.80;99.90
13642;DHT22;6894;52.196;9.904;2023-08-12T13:23:39;22.80;99.90
13642;DHT22;6894;52.196;9.904;2023-08-12T13:26:05;22.80;99.90
13642;DHT22;6894;52.196;9.904;2023-08-12T13:28:32;22.80;99.90
13642;DHT22;6894;52.196;9.904;2023-08-12T13:30:59;22.90;99.90
13642;DHT22;6894;52.196;9.904;2023-08-12T13:33:26;23.10;99.90
13642;DHT22;6894;52.196;9.904;2023-08-12T13:35:55;23.30;99.90
13642;DHT22;6894;52.196;9.904;2023-08-12T13:38:22;23.40;99.90
13642;DHT22;6894;52.196;9.904;2023-08-12T13:40:49;23.50;99.90
13642;DHT22;6894;52.196;9.904;2023-08-12T13:43:16;23.90;99.90
13642;DHT22;6894;52.196;9.904;2023-08-12T13:45:42;24.00;99.90
13642;DHT22;6894;52.196;9.904;2023-08-12T13:48:09;24.20;99.90
13642;DHT22;6894;52.196;9.904;2023-08-12T13:50:36;24.30;99.90
13642;DHT22;6894;52.196;9.904;2023-08-12T13:53:04;24.30;99.90
13642;DHT22;6894;52.196;9.904;2023-08-12T13:55:31;24.60;99.90
13642;DHT22;6894;52.196;9.904;2023-08-12T13:57:58;24.70;99.90
13642;DHT22;6894;52.196;9.904;2023-08-12T14:00:25;24.80;99.90
13642;DHT22;6894;52.196;9.904;2023-08-12T14:02:52;24.90;99.90
13642;DHT22;6894;52.196;9.904;2023-08-12T14:05:19;25.00;99.90
13642;DHT22;6894;52.196;9.904;2023-08-12T14:07:46;25.10;99.90
13642;DHT22;6894;52.196;9.904;2023-08-12T14:10:14;25.20;99.90
13642;DHT22;6894;52.196;9.904;2023-08-12T14:12:40;25.40;99.90
13642;DHT22;6894;52.196;9.904;2023-08-12T14:15:07;25.60;99.90
13642;DHT22;6894;52.196;9.904;2023-08-12T14:17:34;25.70;99.90
13642;DHT22;6894;52.196;9.904;2023-08-12T14:20:01;25.80;99.90
13642;DHT22;6894;52.196;9.904;2023-08-12T14:22:33;25.90;99.90
13642;DHT22;6894;52.196;9.904;2023-08-12T14:25:00;25.90;99.90
13642;DHT22;6894;52.196;9.904;2023-08-12T14:27:28;25.80;99.90
13642;DHT22;6894;52.196;9.904;2023-08-12T14:29:54;25.90;99.90
13642;DHT22;6894;52.196;9.904;2023-08-12T14:32:21;26.00;99.90
13642;DHT22;6894;52.196;9.904;2023-08-12T14:34:48;26.00;99.90
13642;DHT22;6894;52.196;9.904;2023-08-12T14:37:15;26.10;99.90
13642;DHT22;6894;52.196;9.904;2023-08-12T14:39:41;26.20;99.90
13642;DHT22;6894;52.196;9.904;2023-08-12T14:42:08;26.40;99.90
13642;DHT22;6894;52.196;9.904;2023-08-12T14:44:37;26.70;99.90
13642;DHT22;6894;52.196;9.904;2023-08-12T14:47:04;26.80;99.90
13642;DHT22;6894;52.196;9.904;2023-08-12T14:49:31;26.80;99.90
13642;DHT22;6894;52.196;9.904;2023-08-12T14:51:58;26.80;99.90
13642;DHT22;6894;52.196;9.904;2023-08-12T14:54:24;26.90;99.90
13642;DHT22;6894;52.196;9.904;2023-08-12T14:56:51;26.90;99.90
13642;DHT22;6894;52.196;9.904;2023-08-12T14:59:18;26.80;99.90
13642;DHT22;6894;52.196;9.904;2023-08-12T15:01:46;26.80;99.90
13642;DHT22;6894;52.196;9.904;2023-08-12T15:04:13;26.60;99.90
13642;DHT22;6894;52.196;9.904;2023-08-12T15:06:39;26.50;99.90
13642;DHT22;6894;52.196;9.904;2023-08-12T15:09:06;26.50;99.90
13642;DHT22;6894;52.196;9.904;2023-08-12T15:11:34;26.50;99.90
13642;DHT22;6894;52.196;9.904;2023-08-12T15:14:01;26.80;99.90
13642;DHT22;6894;52.196;9.904;2023-08-12T15:16:28;27.00;99.90
13642;DHT22;6894;52.196;9.904;2023-08-12T15:18:56;27.00;99.90
13642;DHT22;6894;52.196;9.904;2023-08-12T15:21:22;26.80;99.90
13642;DHT22;6894;52.196;9.904;2023-08-12T15:23:49;26.70;99.90
13642;DHT22;6894;52.196;9.904;2023-08-12T15:26:16;26.70;99.90
13642;DHT22;6894;52.196;9.904;2023-08-12T15:28:43;26.70;99.90
13642;DHT22;6894;52.196;9.904;2023-08-12T15:31:11;26.60;99.90
13642;DHT22;6894;52.196;9.904;2023-08-12T15:33:38;26.50;99.90
13642;DHT22;6894;52.196;9.904;2023-08-12T15:36:06;26.20;99.90
13642;DHT22;6894;52.196;9.904;2023-08-12T15:38:33;25.40;99.90
13642;DHT22;6894;52.196;9.904;2023-08-12T15:41:00;24.40;99.90
13642;DHT22;6894;52.196;9.904;2023-08-12T15:43:27;23.80;99.90
13642;DHT22;6894;52.196;9.904;2023-08-12T15:45:54;23.50;99.90